sensor_id;sensor_type;location;lat;lon;timestamp;P1;P2;P0
73146;PMS7003;61345;48.922;2.244;2023-02-15T00:01:16;83.75;57.50;37.50
73146;PMS7003;61345;48.922;2.244;2023-02-15T00:03:41;85.50;60.00;37.00
73146;PMS7003;61345;48.922;2.244;2023-02-15T00:06:07;86.00;59.00;37.25
73146;PMS7003;61345;48.922;2.244;2023-02-15T00:08:32;84.25;61.50;37.75
73146;PMS7003;61345;48.922;2.244;2023-02-15T00:11:04;79.25;57.50;38.75
73146;PMS7003;61345;48.922;2.244;2023-02-15T00:13:30;86.75;62.00;36.25
73146;PMS7003;61345;48.922;2.244;2023-02-15T00:15:59;82.00;57.00;37.25
73146;PMS7003;61345;48.922;2.244;2023-02-15T00:18:28;82.75;60.75;38.50
73146;PMS7003;61345;48.922;2.244;2023-02-15T00:20:54;88.75;58.25;36.00
73146;PMS7003;61345;48.922;2.244;2023-02-15T00:23:19;84.00;61.25;36.25
73146;PMS7003;61345;48.922;2.244;2023-02-15T00:25:44;70.75;53.75;36.50
73146;PMS7003;61345;48.922;2.244;2023-02-15T00:28:10;83.25;60.00;39.00
73146;PMS7003;61345;48.922;2.244;2023-02-15T00:30:35;82.25;61.25;40.50
73146;PMS7003;61345;48.922;2.244;2023-02-15T00:33:00;87.25;60.50;36.25
73146;PMS7003;61345;48.922;2.244;2023-02-15T00:35:26;82.50;58.25;37.25
73146;PMS7003;61345;48.922;2.244;2023-02-15T00:37:51;85.67;64.00;39.00
73146;PMS7003;61345;48.922;2.244;2023-02-15T00:40:17;86.00;61.25;38.25
73146;PMS7003;61345;48.922;2.244;2023-02-15T00:42:43;86.25;61.25;39.00
73146;PMS7003;61345;48.922;2.244;2023-02-15T00:45:08;88.75;65.75;40.25
73146;PMS7003;61345;48.922;2.244;2023-02-15T00:47:34;84.75;62.00;39.25
73146;PMS7003;61345;48.922;2.244;2023-02-15T00:49:59;81.75;61.00;40.00
73146;PMS7003;61345;48.922;2.244;2023-02-15T00:52:24;87.33;63.33;39.00
73146;PMS7003;61345;48.922;2.244;2023-02-15T00:54:50;91.25;65.50;41.75
73146;PMS7003;61345;48.922;2.244;2023-02-15T00:57:15;97.50;62.75;41.00
73146;PMS7003;61345;48.922;2.244;2023-02-15T00:59:40;91.00;64.00;41.75
73146;PMS7003;61345;48.922;2.244;2023-02-15T01:02:06;101.00;71.00;44.00
73146;PMS7003;61345;48.922;2.244;2023-02-15T01:04:31;91.75;66.00;43.25
73146;PMS7003;61345;48.922;2.244;2023-02-15T01:06:56;91.67;65.33;41.00
73146;PMS7003;61345;48.922;2.244;2023-02-15T01:09:22;87.25;63.00;39.25
73146;PMS7003;61345;48.922;2.244;2023-02-15T01:11:47;86.25;64.00;39.00
73146;PMS7003;61345;48.922;2.244;2023-02-15T01:14:12;87.50;63.25;38.00
73146;PMS7003;61345;48.922;2.244;2023-02-15T01:16:39;89.50;60.50;39.25
73146;PMS7003;61345;48.922;2.244;2023-02-15T01:19:04;94.25;64.25;40.75
73146;PMS7003;61345;48.922;2.244;2023-02-15T01:21:30;90.00;65.50;40.75
73146;PMS7003;61345;48.922;2.244;2023-02-15T01:23:59;92.00;66.50;42.50
73146;PMS7003;61345;48.922;2.244;2023-02-15T01:26:24;87.50;65.25;41.00
73146;PMS7003;61345;48.922;2.244;2023-02-15T01:28:50;93.50;66.25;41.75
73146;PMS7003;61345;48.922;2.244;2023-02-15T01:31:16;89.25;67.75;44.00
73146;PMS7003;61345;48.922;2.244;2023-02-15T01:33:44;91.00;66.25;43.50
73146;PMS7003;61345;48.922;2.244;2023-02-15T01:36:10;91.00;66.25;42.50
73146;PMS7003;61345;48.922;2.244;2023-02-15T01:38:36;91.00;65.75;41.00
73146;PMS7003;61345;48.922;2.244;2023-02-15T01:41:02;86.75;63.00;40.75
73146;PMS7003;61345;48.922;2.244;2023-02-15T01:43:48;92.50;67.00;41.75
73146;PMS7003;61345;48.922;2.244;2023-02-15T01:46:16;94.00;64.00;39.75
73146;PMS7003;61345;48.922;2.244;2023-02-15T01:48:47;85.75;64.75;38.75
73146;PMS7003;61345;48.922;2.244;2023-02-15T01:51:14;85.75;63.25;40.50
73146;PMS7003;61345;48.922;2.244;2023-02-15T01:53:45;81.25;62.50;37.50
73146;PMS7003;61345;48.922;2.244;2023-02-15T01:56:27;78.00;58.25;33.75
73146;PMS7003;61345;48.922;2.244;2023-02-15T01:58:58;89.50;66.00;42.50
73146;PMS7003;61345;48.922;2.244;2023-02-15T02:01:25;97.25;68.75;43.00
73146;PMS7003;61345;48.922;2.244;2023-02-15T02:06:30;89.25;65.00;41.25
73146;PMS7003;61345;48.922;2.244;2023-02-15T02:08:57;90.25;67.75;44.00
73146;PMS7003;61345;48.922;2.244;2023-02-15T02:11:23;95.50;68.25;43.50
73146;PMS7003;61345;48.922;2.244;2023-02-15T02:13:48;99.50;68.25;44.00
73146;PMS7003;61345;48.922;2.244;2023-02-15T02:16:23;92.00;70.00;42.75
73146;PMS7003;61345;48.922;2.244;2023-02-15T02:33:13;95.25;66.00;43.50
73146;PMS7003;61345;48.922;2.244;2023-02-15T02:38:48;94.50;68.00;44.25
73146;PMS7003;61345;48.922;2.244;2023-02-15T02:46:39;92.75;69.00;43.50
73146;PMS7003;61345;48.922;2.244;2023-02-15T02:49:06;96.00;68.50;43.25
73146;PMS7003;61345;48.922;2.244;2023-02-15T02:51:31;89.25;68.75;43.75
73146;PMS7003;61345;48.922;2.244;2023-02-15T02:53:57;93.25;67.25;44.25
73146;PMS7003;61345;48.922;2.244;2023-02-15T02:56:29;94.75;69.75;44.25
73146;PMS7003;61345;48.922;2.244;2023-02-15T02:59:19;93.00;66.75;43.25
73146;PMS7003;61345;48.922;2.244;2023-02-15T03:01:57;94.50;71.50;45.50
73146;PMS7003;61345;48.922;2.244;2023-02-15T03:04:25;89.25;65.75;41.50
73146;PMS7003;61345;48.922;2.244;2023-02-15T03:06:58;97.50;68.00;44.00
73146;PMS7003;61345;48.922;2.244;2023-02-15T03:09:30;85.50;67.00;44.00
73146;PMS7003;61345;48.922;2.244;2023-02-15T03:12:12;97.50;67.25;43.25
73146;PMS7003;61345;48.922;2.244;2023-02-15T03:14:40;92.25;66.50;42.00
73146;PMS7003;61345;48.922;2.244;2023-02-15T03:17:08;90.00;65.50;41.75
73146;PMS7003;61345;48.922;2.244;2023-02-15T03:19:35;79.00;55.00;36.25
73146;PMS7003;61345;48.922;2.244;2023-02-15T03:22:10;89.50;66.50;41.75
73146;PMS7003;61345;48.922;2.244;2023-02-15T03:24:42;91.50;68.25;41.00
73146;PMS7003;61345;48.922;2.244;2023-02-15T03:27:33;98.50;67.50;42.25
73146;PMS7003;61345;48.922;2.244;2023-02-15T03:30:03;95.25;68.25;42.75
73146;PMS7003;61345;48.922;2.244;2023-02-15T03:32:31;89.25;66.25;43.50
73146;PMS7003;61345;48.922;2.244;2023-02-15T03:34:57;87.75;65.75;42.25
73146;PMS7003;61345;48.922;2.244;2023-02-15T03:39:52;88.00;65.50;41.00
73146;PMS7003;61345;48.922;2.244;2023-02-15T03:42:29;95.75;70.00;43.50
73146;PMS7003;61345;48.922;2.244;2023-02-15T03:47:35;90.75;65.00;42.25
73146;PMS7003;61345;48.922;2.244;2023-02-15T03:50:18;93.00;68.25;42.25
73146;PMS7003;61345;48.922;2.244;2023-02-15T03:53:05;96.00;68.00;44.25
73146;PMS7003;61345;48.922;2.244;2023-02-15T03:55:33;96.50;70.50;42.50
73146;PMS7003;61345;48.922;2.244;2023-02-15T03:57:59;90.50;66.25;44.50
73146;PMS7003;61345;48.922;2.244;2023-02-15T04:00:51;88.50;63.25;41.00
73146;PMS7003;61345;48.922;2.244;2023-02-15T04:03:57;97.25;67.50;42.50
73146;PMS7003;61345;48.922;2.244;2023-02-15T04:06:26;92.50;67.50;42.25
73146;PMS7003;61345;48.922;2.244;2023-02-15T04:08:51;92.50;68.25;41.25
73146;PMS7003;61345;48.922;2.244;2023-02-15T04:11:35;92.00;66.50;41.50
73146;PMS7003;61345;48.922;2.244;2023-02-15T04:14:00;92.00;66.25;41.50
73146;PMS7003;61345;48.922;2.244;2023-02-15T04:16:46;93.25;66.75;42.50
73146;PMS7003;61345;48.922;2.244;2023-02-15T04:19:11;90.33;68.67;42.67
73146;PMS7003;61345;48.922;2.244;2023-02-15T04:21:55;87.25;62.50;37.00
73146;PMS7003;61345;48.922;2.244;2023-02-15T04:24:39;89.50;63.25;39.50
73146;PMS7003;61345;48.922;2.244;2023-02-15T04:27:23;92.25;61.00;37.00
73146;PMS7003;61345;48.922;2.244;2023-02-15T04:29:48;85.33;66.33;41.00
73146;PMS7003;61345;48.922;2.244;2023-02-15T04:32:14;91.75;68.25;43.25
73146;PMS7003;61345;48.922;2.244;2023-02-15T04:34:40;93.50;67.75;43.00
73146;PMS7003;61345;48.922;2.244;2023-02-15T04:37:05;92.33;65.33;41.33
73146;PMS7003;61345;48.922;2.244;2023-02-15T04:39:30;81.00;63.00;41.25
73146;PMS7003;61345;48.922;2.244;2023-02-15T04:41:57;90.25;61.25;38.25
73146;PMS7003;61345;48.922;2.244;2023-02-15T04:44:22;83.00;62.50;40.50
73146;PMS7003;61345;48.922;2.244;2023-02-15T04:46:47;90.25;63.00;39.50
73146;PMS7003;61345;48.922;2.244;2023-02-15T04:49:13;89.25;60.25;36.25
73146;PMS7003;61345;48.922;2.244;2023-02-15T04:51:38;85.75;64.50;41.25
73146;PMS7003;61345;48.922;2.244;2023-02-15T04:54:03;92.25;67.25;41.00
73146;PMS7003;61345;48.922;2.244;2023-02-15T04:56:29;86.50;60.25;40.25
73146;PMS7003;61345;48.922;2.244;2023-02-15T04:58:54;96.00;66.75;41.50
73146;PMS7003;61345;48.922;2.244;2023-02-15T05:01:20;89.75;65.25;41.25
73146;PMS7003;61345;48.922;2.244;2023-02-15T05:03:45;85.75;59.00;35.25
73146;PMS7003;61345;48.922;2.244;2023-02-15T05:06:11;89.50;64.00;40.00
73146;PMS7003;61345;48.922;2.244;2023-02-15T05:08:36;82.75;58.50;40.50
73146;PMS7003;61345;48.922;2.244;2023-02-15T05:11:01;89.50;62.50;40.00
73146;PMS7003;61345;48.922;2.244;2023-02-15T05:13:27;96.00;64.50;40.25
73146;PMS7003;61345;48.922;2.244;2023-02-15T05:15:52;88.75;63.75;40.00
73146;PMS7003;61345;48.922;2.244;2023-02-15T05:18:18;92.50;66.25;41.25
73146;PMS7003;61345;48.922;2.244;2023-02-15T05:20:44;100.25;71.00;42.75
73146;PMS7003;61345;48.922;2.244;2023-02-15T05:23:10;96.75;67.25;41.00
73146;PMS7003;61345;48.922;2.244;2023-02-15T05:25:35;93.25;67.50;42.00
73146;PMS7003;61345;48.922;2.244;2023-02-15T05:28:19;93.00;67.25;40.75
73146;PMS7003;61345;48.922;2.244;2023-02-15T05:30:48;87.50;62.00;40.25
73146;PMS7003;61345;48.922;2.244;2023-02-15T05:33:14;91.75;66.00;41.25
73146;PMS7003;61345;48.922;2.244;2023-02-15T05:35:39;87.75;64.75;41.25
73146;PMS7003;61345;48.922;2.244;2023-02-15T05:38:05;89.00;65.00;41.25
73146;PMS7003;61345;48.922;2.244;2023-02-15T05:40:30;87.33;63.33;36.00
73146;PMS7003;61345;48.922;2.244;2023-02-15T05:42:56;85.25;63.00;41.25
73146;PMS7003;61345;48.922;2.244;2023-02-15T05:45:21;93.00;66.00;41.50
73146;PMS7003;61345;48.922;2.244;2023-02-15T05:47:47;93.25;66.50;42.75
73146;PMS7003;61345;48.922;2.244;2023-02-15T05:50:12;90.00;67.00;42.00
73146;PMS7003;61345;48.922;2.244;2023-02-15T05:52:37;86.75;63.50;42.00
73146;PMS7003;61345;48.922;2.244;2023-02-15T05:55:03;96.00;65.67;41.33
73146;PMS7003;61345;48.922;2.244;2023-02-15T05:57:29;83.50;60.50;39.75
73146;PMS7003;61345;48.922;2.244;2023-02-15T05:59:55;91.00;66.50;42.25
73146;PMS7003;61345;48.922;2.244;2023-02-15T06:02:20;80.50;55.00;31.00
73146;PMS7003;61345;48.922;2.244;2023-02-15T06:04:46;86.33;65.33;41.33
73146;PMS7003;61345;48.922;2.244;2023-02-15T06:07:11;86.75;61.25;42.00
73146;PMS7003;61345;48.922;2.244;2023-02-15T06:09:36;91.25;68.25;42.75
73146;PMS7003;61345;48.922;2.244;2023-02-15T06:12:01;80.50;62.25;40.75
73146;PMS7003;61345;48.922;2.244;2023-02-15T06:14:27;84.00;64.33;41.00
73146;PMS7003;61345;48.922;2.244;2023-02-15T06:16:52;93.50;67.75;42.25
73146;PMS7003;61345;48.922;2.244;2023-02-15T06:19:18;92.67;67.67;42.00
73146;PMS7003;61345;48.922;2.244;2023-02-15T06:21:43;93.25;67.00;43.25
73146;PMS7003;61345;48.922;2.244;2023-02-15T06:24:09;37.75;27.50;0.00
73146;PMS7003;61345;48.922;2.244;2023-02-15T06:26:34;93.00;66.00;42.00
73146;PMS7003;61345;48.922;2.244;2023-02-15T06:29:00;89.75;66.50;40.00
73146;PMS7003;61345;48.922;2.244;2023-02-15T06:31:25;91.25;66.00;43.00
73146;PMS7003;61345;48.922;2.244;2023-02-15T06:33:50;94.25;68.75;42.75
73146;PMS7003;61345;48.922;2.244;2023-02-15T06:36:16;92.75;64.50;40.75
73146;PMS7003;61345;48.922;2.244;2023-02-15T06:38:41;95.25;66.00;40.00
73146;PMS7003;61345;48.922;2.244;2023-02-15T06:41:06;94.67;67.00;42.67
73146;PMS7003;61345;48.922;2.244;2023-02-15T06:43:32;97.50;66.00;42.00
73146;PMS7003;61345;48.922;2.244;2023-02-15T06:45:59;86.25;65.50;42.00
73146;PMS7003;61345;48.922;2.244;2023-02-15T06:48:24;98.00;69.50;46.00
73146;PMS7003;61345;48.922;2.244;2023-02-15T06:50:49;91.75;63.75;42.25
73146;PMS7003;61345;48.922;2.244;2023-02-15T06:53:15;88.25;67.25;43.50
73146;PMS7003;61345;48.922;2.244;2023-02-15T06:55:40;90.00;69.00;42.00
73146;PMS7003;61345;48.922;2.244;2023-02-15T06:58:05;96.00;66.00;41.25
73146;PMS7003;61345;48.922;2.244;2023-02-15T07:00:31;92.67;69.00;43.00
73146;PMS7003;61345;48.922;2.244;2023-02-15T07:02:58;93.25;66.00;42.25
73146;PMS7003;61345;48.922;2.244;2023-02-15T07:05:24;94.25;66.50;42.50
73146;PMS7003;61345;48.922;2.244;2023-02-15T07:07:55;90.25;67.00;41.75
73146;PMS7003;61345;48.922;2.244;2023-02-15T07:10:24;91.75;68.75;42.00
73146;PMS7003;61345;48.922;2.244;2023-02-15T07:12:50;96.75;67.50;42.00
73146;PMS7003;61345;48.922;2.244;2023-02-15T07:15:16;98.25;66.75;42.75
73146;PMS7003;61345;48.922;2.244;2023-02-15T07:17:43;98.75;69.25;42.50
73146;PMS7003;61345;48.922;2.244;2023-02-15T07:20:13;93.25;67.50;41.75
73146;PMS7003;61345;48.922;2.244;2023-02-15T07:22:40;95.75;66.00;43.00
73146;PMS7003;61345;48.922;2.244;2023-02-15T07:25:06;91.75;67.00;42.25
73146;PMS7003;61345;48.922;2.244;2023-02-15T07:27:33;102.00;68.75;45.00
73146;PMS7003;61345;48.922;2.244;2023-02-15T07:29:59;96.00;69.25;43.25
73146;PMS7003;61345;48.922;2.244;2023-02-15T07:32:27;91.25;68.75;43.00
73146;PMS7003;61345;48.922;2.244;2023-02-15T07:34:54;96.75;69.00;45.25
73146;PMS7003;61345;48.922;2.244;2023-02-15T07:37:19;96.50;72.00;45.75
73146;PMS7003;61345;48.922;2.244;2023-02-15T07:39:44;97.50;71.75;45.00
73146;PMS7003;61345;48.922;2.244;2023-02-15T07:42:10;102.00;70.67;46.00
73146;PMS7003;61345;48.922;2.244;2023-02-15T07:44:42;91.50;67.75;45.50
73146;PMS7003;61345;48.922;2.244;2023-02-15T07:47:08;96.00;70.50;45.75
73146;PMS7003;61345;48.922;2.244;2023-02-15T07:49:36;101.75;70.00;45.25
73146;PMS7003;61345;48.922;2.244;2023-02-15T07:52:01;94.00;66.75;44.25
73146;PMS7003;61345;48.922;2.244;2023-02-15T07:54:27;97.25;71.25;45.75
73146;PMS7003;61345;48.922;2.244;2023-02-15T07:56:52;92.25;69.00;45.00
73146;PMS7003;61345;48.922;2.244;2023-02-15T07:59:17;91.25;68.25;43.25
73146;PMS7003;61345;48.922;2.244;2023-02-15T08:01:43;92.75;66.00;36.50
73146;PMS7003;61345;48.922;2.244;2023-02-15T08:04:08;92.75;67.75;42.50
73146;PMS7003;61345;48.922;2.244;2023-02-15T08:06:36;97.25;69.25;44.00
73146;PMS7003;61345;48.922;2.244;2023-02-15T08:09:05;96.00;71.00;44.50
73146;PMS7003;61345;48.922;2.244;2023-02-15T08:11:32;58.25;29.25;0.00
73146;PMS7003;61345;48.922;2.244;2023-02-15T08:14:12;102.50;73.75;46.25
73146;PMS7003;61345;48.922;2.244;2023-02-15T08:16:49;99.50;74.25;45.75
73146;PMS7003;61345;48.922;2.244;2023-02-15T08:21:47;100.50;74.00;47.75
73146;PMS7003;61345;48.922;2.244;2023-02-15T08:24:33;100.00;72.75;46.25
73146;PMS7003;61345;48.922;2.244;2023-02-15T08:26:59;100.00;71.25;46.50
73146;PMS7003;61345;48.922;2.244;2023-02-15T08:29:28;103.25;71.25;44.50
73146;PMS7003;61345;48.922;2.244;2023-02-15T08:31:55;100.50;72.25;45.00
73146;PMS7003;61345;48.922;2.244;2023-02-15T08:34:23;91.75;64.50;42.25
73146;PMS7003;61345;48.922;2.244;2023-02-15T08:36:49;106.50;76.25;45.75
73146;PMS7003;61345;48.922;2.244;2023-02-15T08:39:15;104.25;73.50;47.25
73146;PMS7003;61345;48.922;2.244;2023-02-15T08:41:42;94.50;66.75;44.25
73146;PMS7003;61345;48.922;2.244;2023-02-15T08:44:09;93.75;69.25;45.00
73146;PMS7003;61345;48.922;2.244;2023-02-15T08:46:37;97.00;71.50;47.25
73146;PMS7003;61345;48.922;2.244;2023-02-15T08:49:04;97.75;72.00;45.75
73146;PMS7003;61345;48.922;2.244;2023-02-15T08:51:31;98.50;71.25;45.50
73146;PMS7003;61345;48.922;2.244;2023-02-15T08:53:59;98.00;71.00;46.00
73146;PMS7003;61345;48.922;2.244;2023-02-15T08:56:27;77.50;50.00;17.00
73146;PMS7003;61345;48.922;2.244;2023-02-15T08:58:53;91.25;66.50;42.25
73146;PMS7003;61345;48.922;2.244;2023-02-15T09:01:23;94.75;72.00;45.00
73146;PMS7003;61345;48.922;2.244;2023-02-15T09:03:51;101.50;70.50;45.00
73146;PMS7003;61345;48.922;2.244;2023-02-15T09:06:21;97.50;68.00;45.00
73146;PMS7003;61345;48.922;2.244;2023-02-15T09:08:49;104.00;74.00;45.75
73146;PMS7003;61345;48.922;2.244;2023-02-15T09:11:16;102.50;74.75;46.75
73146;PMS7003;61345;48.922;2.244;2023-02-15T09:13:48;96.25;70.75;44.25
73146;PMS7003;61345;48.922;2.244;2023-02-15T09:16:45;99.50;69.50;44.25
73146;PMS7003;61345;48.922;2.244;2023-02-15T09:19:13;102.75;74.00;47.00
73146;PMS7003;61345;48.922;2.244;2023-02-15T09:21:42;100.75;67.50;42.75
73146;PMS7003;61345;48.922;2.244;2023-02-15T09:24:09;94.00;69.25;42.50
73146;PMS7003;61345;48.922;2.244;2023-02-15T09:26:36;88.00;66.50;42.25
73146;PMS7003;61345;48.922;2.244;2023-02-15T09:29:05;98.00;69.25;43.50
73146;PMS7003;61345;48.922;2.244;2023-02-15T09:31:31;98.75;68.25;42.00
73146;PMS7003;61345;48.922;2.244;2023-02-15T09:33:59;95.00;68.00;40.75
73146;PMS7003;61345;48.922;2.244;2023-02-15T09:36:27;97.75;66.50;40.75
73146;PMS7003;61345;48.922;2.244;2023-02-15T09:44:33;91.25;67.00;43.00
73146;PMS7003;61345;48.922;2.244;2023-02-15T09:58:04;90.33;66.00;42.33
73146;PMS7003;61345;48.922;2.244;2023-02-15T10:01:37;88.25;65.50;40.75
73146;PMS7003;61345;48.922;2.244;2023-02-15T10:09:02;95.00;67.75;42.50
73146;PMS7003;61345;48.922;2.244;2023-02-15T10:14:30;94.00;64.75;43.75
73146;PMS7003;61345;48.922;2.244;2023-02-15T10:19:55;94.75;68.00;43.25
73146;PMS7003;61345;48.922;2.244;2023-02-15T10:25:43;93.00;64.25;41.75
73146;PMS7003;61345;48.922;2.244;2023-02-15T10:30:45;93.50;65.25;41.00
73146;PMS7003;61345;48.922;2.244;2023-02-15T10:33:16;92.00;66.25;42.25
73146;PMS7003;61345;48.922;2.244;2023-02-15T10:38:39;87.00;64.00;40.50
73146;PMS7003;61345;48.922;2.244;2023-02-15T10:47:01;91.50;67.50;42.50
73146;PMS7003;61345;48.922;2.244;2023-02-15T11:00:37;76.25;60.75;40.00
73146;PMS7003;61345;48.922;2.244;2023-02-15T11:05:46;89.00;63.25;40.00
73146;PMS7003;61345;48.922;2.244;2023-02-15T11:08:17;86.25;61.50;38.50
73146;PMS7003;61345;48.922;2.244;2023-02-15T11:10:54;80.50;59.75;38.75
73146;PMS7003;61345;48.922;2.244;2023-02-15T11:13:24;86.50;63.75;39.75
73146;PMS7003;61345;48.922;2.244;2023-02-15T11:15:56;87.50;64.25;40.50
73146;PMS7003;61345;48.922;2.244;2023-02-15T11:18:32;88.00;61.25;39.50
73146;PMS7003;61345;48.922;2.244;2023-02-15T11:21:03;86.00;62.75;38.50
73146;PMS7003;61345;48.922;2.244;2023-02-15T11:23:33;83.25;60.50;37.50
73146;PMS7003;61345;48.922;2.244;2023-02-15T11:26:04;82.25;58.50;36.50
73146;PMS7003;61345;48.922;2.244;2023-02-15T11:28:51;80.75;58.75;37.75
73146;PMS7003;61345;48.922;2.244;2023-02-15T11:31:25;81.50;58.50;36.25
73146;PMS7003;61345;48.922;2.244;2023-02-15T11:34:12;83.75;60.50;39.50
73146;PMS7003;61345;48.922;2.244;2023-02-15T11:36:58;83.25;59.25;37.50
73146;PMS7003;61345;48.922;2.244;2023-02-15T11:39:28;83.00;56.00;36.25
73146;PMS7003;61345;48.922;2.244;2023-02-15T11:41:55;78.00;58.00;36.00
73146;PMS7003;61345;48.922;2.244;2023-02-15T11:44:32;73.75;53.75;34.00
73146;PMS7003;61345;48.922;2.244;2023-02-15T11:47:01;69.50;51.00;31.50
73146;PMS7003;61345;48.922;2.244;2023-02-15T11:49:29;70.75;51.75;32.25
73146;PMS7003;61345;48.922;2.244;2023-02-15T11:51:57;68.75;51.25;34.00
73146;PMS7003;61345;48.922;2.244;2023-02-15T11:54:28;68.50;50.50;31.50
73146;PMS7003;61345;48.922;2.244;2023-02-15T11:56:55;66.75;49.25;31.75
73146;PMS7003;61345;48.922;2.244;2023-02-15T11:59:27;66.25;49.00;33.00
73146;PMS7003;61345;48.922;2.244;2023-02-15T12:01:56;68.25;49.00;33.00
73146;PMS7003;61345;48.922;2.244;2023-02-15T12:07:00;64.00;46.25;30.00
73146;PMS7003;61345;48.922;2.244;2023-02-15T12:12:25;65.75;47.50;31.75
73146;PMS7003;61345;48.922;2.244;2023-02-15T12:14:53;61.50;47.00;30.75
73146;PMS7003;61345;48.922;2.244;2023-02-15T12:18:15;62.25;47.25;31.00
73146;PMS7003;61345;48.922;2.244;2023-02-15T12:22:45;58.33;46.00;31.00
73146;PMS7003;61345;48.922;2.244;2023-02-15T12:27:51;66.25;47.75;29.50
73146;PMS7003;61345;48.922;2.244;2023-02-15T12:32:53;65.25;47.25;30.00
73146;PMS7003;61345;48.922;2.244;2023-02-15T12:35:31;61.50;45.25;29.00
73146;PMS7003;61345;48.922;2.244;2023-02-15T12:40:36;59.25;46.00;31.00
73146;PMS7003;61345;48.922;2.244;2023-02-15T12:43:02;60.25;47.25;31.00
73146;PMS7003;61345;48.922;2.244;2023-02-15T12:45:34;61.25;45.75;29.75
73146;PMS7003;61345;48.922;2.244;2023-02-15T12:50:37;57.00;44.75;29.00
73146;PMS7003;61345;48.922;2.244;2023-02-15T12:53:15;56.00;43.25;27.75
73146;PMS7003;61345;48.922;2.244;2023-02-15T12:58:25;57.50;43.75;29.00
73146;PMS7003;61345;48.922;2.244;2023-02-15T13:03:39;56.75;44.75;29.00
73146;PMS7003;61345;48.922;2.244;2023-02-15T13:06:17;58.25;45.25;30.00
73146;PMS7003;61345;48.922;2.244;2023-02-15T13:08:46;57.00;44.75;28.75
73146;PMS7003;61345;48.922;2.244;2023-02-15T13:11:14;59.50;42.75;28.25
73146;PMS7003;61345;48.922;2.244;2023-02-15T13:13:59;61.25;43.00;27.25
73146;PMS7003;61345;48.922;2.244;2023-02-15T13:16:30;58.50;42.00;29.00
73146;PMS7003;61345;48.922;2.244;2023-02-15T13:18:57;54.75;41.50;27.50
73146;PMS7003;61345;48.922;2.244;2023-02-15T13:21:49;54.75;43.00;29.00
73146;PMS7003;61345;48.922;2.244;2023-02-15T13:24:33;57.75;43.00;28.00
73146;PMS7003;61345;48.922;2.244;2023-02-15T13:27:02;52.75;43.00;27.50
73146;PMS7003;61345;48.922;2.244;2023-02-15T13:29:28;50.75;39.25;27.00
73146;PMS7003;61345;48.922;2.244;2023-02-15T13:31:58;53.25;40.50;26.50
73146;PMS7003;61345;48.922;2.244;2023-02-15T13:34:34;57.50;41.00;27.00
73146;PMS7003;61345;48.922;2.244;2023-02-15T13:37:06;56.00;42.50;28.00
73146;PMS7003;61345;48.922;2.244;2023-02-15T13:42:26;70.50;53.00;35.00
73146;PMS7003;61345;48.922;2.244;2023-02-15T13:45:00;78.00;59.50;37.00
73146;PMS7003;61345;48.922;2.244;2023-02-15T13:47:51;78.75;59.75;38.75
73146;PMS7003;61345;48.922;2.244;2023-02-15T13:50:38;76.75;57.00;36.00
73146;PMS7003;61345;48.922;2.244;2023-02-15T13:53:50;84.00;59.25;37.00
73146;PMS7003;61345;48.922;2.244;2023-02-15T13:59:15;71.25;52.50;35.00
73146;PMS7003;61345;48.922;2.244;2023-02-15T14:02:04;73.00;54.00;34.25
73146;PMS7003;61345;48.922;2.244;2023-02-15T14:13:11;73.50;54.50;35.00
73146;PMS7003;61345;48.922;2.244;2023-02-15T14:15:53;69.75;49.75;33.00
73146;PMS7003;61345;48.922;2.244;2023-02-15T14:31:59;74.00;53.50;35.25
73146;PMS7003;61345;48.922;2.244;2023-02-15T14:34:38;72.50;54.50;35.00
73146;PMS7003;61345;48.922;2.244;2023-02-15T14:37:10;75.25;54.00;33.75
73146;PMS7003;61345;48.922;2.244;2023-02-15T14:39:44;80.25;54.00;34.50
73146;PMS7003;61345;48.922;2.244;2023-02-15T14:43:11;69.75;51.00;33.25
73146;PMS7003;61345;48.922;2.244;2023-02-15T14:45:49;73.00;50.50;34.00
73146;PMS7003;61345;48.922;2.244;2023-02-15T14:48:25;69.75;49.50;31.25
73146;PMS7003;61345;48.922;2.244;2023-02-15T14:50:55;71.50;50.50;33.75
73146;PMS7003;61345;48.922;2.244;2023-02-15T14:58:35;67.00;49.75;33.00
73146;PMS7003;61345;48.922;2.244;2023-02-15T15:01:08;65.25;47.50;32.75
73146;PMS7003;61345;48.922;2.244;2023-02-15T15:03:35;65.25;48.75;31.75
73146;PMS7003;61345;48.922;2.244;2023-02-15T15:06:01;67.50;50.50;31.25
73146;PMS7003;61345;48.922;2.244;2023-02-15T15:08:29;65.50;50.00;32.25
73146;PMS7003;61345;48.922;2.244;2023-02-15T15:11:36;65.25;50.00;32.00
73146;PMS7003;61345;48.922;2.244;2023-02-15T15:13:57;66.75;50.00;32.25
73146;PMS7003;61345;48.922;2.244;2023-02-15T15:19:02;72.00;50.00;32.50
73146;PMS7003;61345;48.922;2.244;2023-02-15T15:44:01;59.00;46.50;30.50
73146;PMS7003;61345;48.922;2.244;2023-02-15T15:49:58;61.75;48.50;31.00
73146;PMS7003;61345;48.922;2.244;2023-02-15T15:52:25;67.25;49.25;32.00
73146;PMS7003;61345;48.922;2.244;2023-02-15T15:54:52;67.00;50.50;31.75
73146;PMS7003;61345;48.922;2.244;2023-02-15T15:57:42;66.75;48.25;30.00
73146;PMS7003;61345;48.922;2.244;2023-02-15T16:00:41;60.25;47.50;30.25
73146;PMS7003;61345;48.922;2.244;2023-02-15T16:03:03;64.25;47.25;30.25
73146;PMS7003;61345;48.922;2.244;2023-02-15T16:05:36;61.50;47.50;30.25
73146;PMS7003;61345;48.922;2.244;2023-02-15T16:08:03;66.75;49.25;32.25
73146;PMS7003;61345;48.922;2.244;2023-02-15T16:10:28;64.75;48.25;30.50
73146;PMS7003;61345;48.922;2.244;2023-02-15T16:12:57;63.00;47.25;30.75
73146;PMS7003;61345;48.922;2.244;2023-02-15T16:15:33;69.25;48.25;31.50
73146;PMS7003;61345;48.922;2.244;2023-02-15T16:18:01;59.00;40.50;21.75
73146;PMS7003;61345;48.922;2.244;2023-02-15T16:20:31;65.00;49.25;31.75
73146;PMS7003;61345;48.922;2.244;2023-02-15T16:28:31;65.75;47.25;31.00
73146;PMS7003;61345;48.922;2.244;2023-02-15T16:31:13;65.25;48.50;30.00
73146;PMS7003;61345;48.922;2.244;2023-02-15T16:33:40;58.00;47.50;30.00
73146;PMS7003;61345;48.922;2.244;2023-02-15T16:36:10;65.50;47.50;31.00
73146;PMS7003;61345;48.922;2.244;2023-02-15T16:41:09;65.00;49.50;31.50
73146;PMS7003;61345;48.922;2.244;2023-02-15T16:43:36;64.75;47.75;31.00
73146;PMS7003;61345;48.922;2.244;2023-02-15T16:46:03;69.50;48.75;31.00
73146;PMS7003;61345;48.922;2.244;2023-02-15T16:48:30;58.00;43.50;28.00
73146;PMS7003;61345;48.922;2.244;2023-02-15T16:50:57;59.25;43.25;28.00
73146;PMS7003;61345;48.922;2.244;2023-02-15T16:53:25;64.25;44.00;25.75
73146;PMS7003;61345;48.922;2.244;2023-02-15T16:55:55;61.75;47.50;30.25
73146;PMS7003;61345;48.922;2.244;2023-02-15T16:58:28;63.25;47.25;30.25
73146;PMS7003;61345;48.922;2.244;2023-02-15T17:00:55;62.75;46.25;29.50
73146;PMS7003;61345;48.922;2.244;2023-02-15T17:03:23;64.50;47.50;28.75